TPC5711 KBWI-CYXU
Flight info
| Callsign | TPC5711 |
|---|---|
| Flight time | 1h 15m |
| Altitude | 32000 |
| Route | LINSE2 JERES J211 JST DCT BEWEL DCT |
| Aircraft | P180/L-SBDFGM3RWXY/LB1 |
Departure
| Time | 2026-04-25 03:37 |
|---|---|
| Airport | Baltimore/Washington International Thurgood Marshall Airport (KBWI) |
Arrival
| Time | 2026-04-25 04:52 |
|---|---|
| Airport | London International Airport (CYXU) |
| Time | Latitude | Longitude | Altitude | Speed | Heading |
|---|---|---|---|---|---|
| 2026-04-25 03:11 | 39.18273 | -76.67444 | 149 ft | 0 kts | 324° |
| 2026-04-25 03:33 | 39.18277 | -76.67449 | 149 ft | 3 kts | 320° |
| 2026-04-25 03:33 | 39.18286 | -76.67493 | 151 ft | 8 kts | 251° |
| 2026-04-25 03:33 | 39.18251 | -76.67558 | 153 ft | 7 kts | 235° |
| 2026-04-25 03:34 | 39.18222 | -76.67613 | 155 ft | 9 kts | 235° |
| 2026-04-25 03:34 | 39.18192 | -76.67669 | 156 ft | 6 kts | 245° |
| 2026-04-25 03:34 | 39.18168 | -76.67709 | 157 ft | 5 kts | 229° |
| 2026-04-25 03:34 | 39.18139 | -76.67754 | 157 ft | 8 kts | 233° |
| 2026-04-25 03:35 | 39.18118 | -76.67786 | 158 ft | 3 kts | 219° |
| 2026-04-25 03:35 | 39.18092 | -76.67786 | 158 ft | 0 kts | 140° |
| 2026-04-25 03:36 | 39.17963 | -76.67666 | 155 ft | 58 kts | 144° |
| 2026-04-25 03:36 | 39.17488 | -76.67226 | 156 ft | 105 kts | 144° |
| 2026-04-25 03:36 | 39.16829 | -76.66624 | 263 ft | 121 kts | 142° |
| 2026-04-25 03:36 | 39.16116 | -76.65940 | 555 ft | 132 kts | 140° |
| 2026-04-25 03:37 | 39.15338 | -76.65208 | 752 ft | 149 kts | 146° |
| 2026-04-25 03:37 | 39.14289 | -76.64806 | 846 ft | 166 kts | 174° |
| 2026-04-25 03:37 | 39.13111 | -76.65014 | 930 ft | 173 kts | 198° |
| 2026-04-25 03:37 | 39.12102 | -76.65732 | 1324 ft | 163 kts | 221° |
| 2026-04-25 03:38 | 39.11491 | -76.66913 | 1677 ft | 157 kts | 250° |
| 2026-04-25 03:38 | 39.11342 | -76.68389 | 1932 ft | 181 kts | 272° |
| 2026-04-25 03:38 | 39.11591 | -76.70051 | 2353 ft | 194 kts | 289° |
| 2026-04-25 03:38 | 39.12243 | -76.71621 | 2730 ft | 205 kts | 303° |
| 2026-04-25 03:39 | 39.13094 | -76.73074 | 3331 ft | 200 kts | 310° |
| 2026-04-25 03:39 | 39.14047 | -76.74327 | 3985 ft | 196 kts | 315° |
| 2026-04-25 03:39 | 39.15095 | -76.75581 | 4217 ft | 210 kts | 317° |
| 2026-04-25 03:39 | 39.16178 | -76.76854 | 4616 ft | 211 kts | 312° |
| 2026-04-25 03:40 | 39.17109 | -76.78331 | 5018 ft | 214 kts | 306° |
| 2026-04-25 03:40 | 39.18048 | -76.79850 | 5410 ft | 219 kts | 309° |
| 2026-04-25 03:40 | 39.19079 | -76.81311 | 5786 ft | 222 kts | 311° |
| 2026-04-25 03:40 | 39.19783 | -76.82275 | 6056 ft | 224 kts | 311° |
| 2026-04-25 03:41 | 39.20838 | -76.83757 | 6442 ft | 225 kts | 310° |
| 2026-04-25 03:41 | 39.21893 | -76.85251 | 6834 ft | 226 kts | 310° |
| 2026-04-25 03:41 | 39.22956 | -76.86745 | 7225 ft | 226 kts | 311° |
| 2026-04-25 03:41 | 39.24003 | -76.88215 | 7774 ft | 218 kts | 311° |
| 2026-04-25 03:42 | 39.25010 | -76.89634 | 8391 ft | 211 kts | 310° |
| 2026-04-25 03:42 | 39.25989 | -76.91015 | 9018 ft | 206 kts | 310° |
| 2026-04-25 03:42 | 39.26944 | -76.92370 | 9658 ft | 202 kts | 310° |
| 2026-04-25 03:42 | 39.27882 | -76.93688 | 10248 ft | 197 kts | 310° |
| 2026-04-25 03:43 | 39.28797 | -76.94978 | 10847 ft | 193 kts | 310° |
| 2026-04-25 03:43 | 39.29693 | -76.96244 | 11447 ft | 189 kts | 311° |
| 2026-04-25 03:43 | 39.30570 | -76.97477 | 12063 ft | 185 kts | 311° |
| 2026-04-25 03:43 | 39.31424 | -76.98691 | 12684 ft | 180 kts | 311° |
| 2026-04-25 03:44 | 39.32256 | -76.99866 | 13321 ft | 175 kts | 312° |
| 2026-04-25 03:44 | 39.33060 | -77.01006 | 13937 ft | 168 kts | 312° |
| 2026-04-25 03:44 | 39.33835 | -77.02100 | 14508 ft | 162 kts | 312° |
| 2026-04-25 03:44 | 39.34601 | -77.03188 | 14920 ft | 165 kts | 312° |
| 2026-04-25 03:45 | 39.35379 | -77.04284 | 15349 ft | 166 kts | 312° |
| 2026-04-25 03:45 | 39.36155 | -77.05389 | 15784 ft | 166 kts | 311° |
| 2026-04-25 03:45 | 39.36934 | -77.06491 | 16135 ft | 171 kts | 311° |
| 2026-04-25 03:45 | 39.37753 | -77.07650 | 16473 ft | 177 kts | 312° |
| 2026-04-25 03:46 | 39.38605 | -77.08858 | 16821 ft | 182 kts | 311° |
| 2026-04-25 03:46 | 39.39453 | -77.10062 | 17155 ft | 185 kts | 311° |
| 2026-04-25 03:46 | 39.40327 | -77.11305 | 17501 ft | 188 kts | 312° |
| 2026-04-25 03:46 | 39.41213 | -77.12561 | 17849 ft | 190 kts | 311° |
| 2026-04-25 03:47 | 39.42109 | -77.13833 | 18201 ft | 192 kts | 311° |
| 2026-04-25 03:47 | 39.43011 | -77.15116 | 18507 ft | 193 kts | 312° |
| 2026-04-25 03:47 | 39.43919 | -77.16404 | 18806 ft | 194 kts | 312° |
| 2026-04-25 03:47 | 39.44827 | -77.17697 | 19112 ft | 195 kts | 312° |
| 2026-04-25 03:48 | 39.45739 | -77.18996 | 19417 ft | 195 kts | 312° |
| 2026-04-25 03:48 | 39.46654 | -77.20296 | 19729 ft | 195 kts | 312° |
| 2026-04-25 03:48 | 39.47566 | -77.21594 | 20044 ft | 195 kts | 312° |
| 2026-04-25 03:48 | 39.48478 | -77.22895 | 20351 ft | 195 kts | 312° |
| 2026-04-25 03:49 | 39.49388 | -77.24196 | 20665 ft | 195 kts | 313° |
| 2026-04-25 03:49 | 39.50301 | -77.25493 | 20987 ft | 195 kts | 313° |
| 2026-04-25 03:49 | 39.51214 | -77.26795 | 21313 ft | 195 kts | 313° |
| 2026-04-25 03:49 | 39.52126 | -77.28095 | 21642 ft | 195 kts | 313° |
| 2026-04-25 03:50 | 39.53037 | -77.29398 | 21976 ft | 195 kts | 313° |
| 2026-04-25 03:50 | 39.53949 | -77.30699 | 22314 ft | 195 kts | 313° |
| 2026-04-25 03:50 | 39.54863 | -77.32002 | 22655 ft | 195 kts | 313° |
| 2026-04-25 03:50 | 39.55777 | -77.33314 | 22899 ft | 200 kts | 313° |
| 2026-04-25 03:51 | 39.56749 | -77.34701 | 22913 ft | 215 kts | 313° |
| 2026-04-25 03:51 | 39.57782 | -77.36177 | 22912 ft | 227 kts | 313° |
| 2026-04-25 03:51 | 39.58853 | -77.37709 | 23168 ft | 228 kts | 313° |
| 2026-04-25 03:51 | 39.59912 | -77.39230 | 23489 ft | 227 kts | 313° |
| 2026-04-25 03:52 | 39.60974 | -77.40751 | 23711 ft | 228 kts | 313° |
| 2026-04-25 03:52 | 39.62040 | -77.42278 | 23934 ft | 229 kts | 313° |
| 2026-04-25 03:52 | 39.63116 | -77.43808 | 24155 ft | 229 kts | 314° |
| 2026-04-25 03:52 | 39.64165 | -77.45333 | 24386 ft | 230 kts | 307° |
| 2026-04-25 03:53 | 39.64848 | -77.47223 | 24602 ft | 233 kts | 294° |
| 2026-04-25 03:53 | 39.65427 | -77.49218 | 24853 ft | 234 kts | 295° |
| 2026-04-25 03:53 | 39.66021 | -77.51153 | 25095 ft | 234 kts | 295° |
| 2026-04-25 03:53 | 39.66627 | -77.53115 | 25341 ft | 235 kts | 295° |
| 2026-04-25 03:54 | 39.67230 | -77.55089 | 25594 ft | 235 kts | 295° |
| 2026-04-25 03:54 | 39.67840 | -77.57061 | 25851 ft | 236 kts | 295° |
| 2026-04-25 03:54 | 39.68445 | -77.59048 | 26112 ft | 237 kts | 295° |
| 2026-04-25 03:54 | 39.69055 | -77.61042 | 26326 ft | 239 kts | 295° |
| 2026-04-25 03:55 | 39.69669 | -77.63052 | 26588 ft | 240 kts | 295° |
| 2026-04-25 03:55 | 39.70284 | -77.65065 | 26840 ft | 240 kts | 295° |
| 2026-04-25 03:55 | 39.70901 | -77.67087 | 27101 ft | 241 kts | 295° |
| 2026-04-25 03:55 | 39.71520 | -77.69115 | 27361 ft | 242 kts | 295° |
| 2026-04-25 03:56 | 39.72140 | -77.71149 | 27621 ft | 243 kts | 295° |
| 2026-04-25 03:56 | 39.72762 | -77.73192 | 27881 ft | 244 kts | 295° |
| 2026-04-25 03:56 | 39.73386 | -77.75243 | 28157 ft | 245 kts | 295° |
| 2026-04-25 03:56 | 39.74012 | -77.77301 | 28430 ft | 245 kts | 295° |
| 2026-04-25 03:57 | 39.74640 | -77.79366 | 28691 ft | 246 kts | 295° |
| 2026-04-25 03:57 | 39.75270 | -77.81442 | 28960 ft | 247 kts | 295° |
| 2026-04-25 03:57 | 39.75910 | -77.83549 | 29026 ft | 255 kts | 295° |
| 2026-04-25 03:57 | 39.76574 | -77.85735 | 29036 ft | 265 kts | 295° |
| 2026-04-25 03:58 | 39.77259 | -77.87995 | 29045 ft | 273 kts | 295° |
| 2026-04-25 03:58 | 39.77962 | -77.90321 | 29056 ft | 280 kts | 295° |
| 2026-04-25 03:58 | 39.78681 | -77.92701 | 29065 ft | 287 kts | 295° |
| 2026-04-25 03:58 | 39.79413 | -77.95122 | 29327 ft | 285 kts | 295° |
| 2026-04-25 03:59 | 39.80126 | -77.97497 | 29641 ft | 281 kts | 294° |
| 2026-04-25 03:59 | 39.80834 | -77.99852 | 29942 ft | 278 kts | 295° |
| 2026-04-25 03:59 | 39.81545 | -78.02183 | 30161 ft | 276 kts | 295° |
| 2026-04-25 03:59 | 39.82240 | -78.04507 | 30395 ft | 275 kts | 295° |
| 2026-04-25 04:00 | 39.82930 | -78.06813 | 30634 ft | 273 kts | 295° |
| 2026-04-25 04:00 | 39.83636 | -78.09101 | 30857 ft | 271 kts | 297° |
| 2026-04-25 04:00 | 39.84642 | -78.11145 | 31059 ft | 267 kts | 311° |
| 2026-04-25 04:00 | 39.85872 | -78.12952 | 31286 ft | 266 kts | 312° |
| 2026-04-25 04:01 | 39.87075 | -78.14729 | 31519 ft | 265 kts | 311° |
| 2026-04-25 04:01 | 39.88265 | -78.16553 | 31733 ft | 264 kts | 311° |
| 2026-04-25 04:01 | 39.89449 | -78.18374 | 31856 ft | 266 kts | 311° |
| 2026-04-25 04:01 | 39.90664 | -78.20222 | 31859 ft | 271 kts | 311° |
| 2026-04-25 04:02 | 39.91905 | -78.22112 | 31863 ft | 277 kts | 311° |
| 2026-04-25 04:02 | 39.93167 | -78.24039 | 31866 ft | 282 kts | 311° |
| 2026-04-25 04:02 | 39.94449 | -78.25999 | 31863 ft | 287 kts | 311° |
| 2026-04-25 04:02 | 39.95752 | -78.27990 | 31863 ft | 291 kts | 311° |
| 2026-04-25 04:03 | 39.97073 | -78.30013 | 31863 ft | 295 kts | 311° |
| 2026-04-25 04:03 | 39.98412 | -78.32062 | 31865 ft | 298 kts | 311° |
| 2026-04-25 04:03 | 40.01123 | -78.36215 | 31863 ft | 304 kts | 311° |
| 2026-04-25 04:04 | 40.03881 | -78.40422 | 31861 ft | 307 kts | 310° |
| 2026-04-25 04:04 | 40.06639 | -78.44702 | 31862 ft | 310 kts | 311° |
| 2026-04-25 04:05 | 40.09445 | -78.49001 | 31904 ft | 312 kts | 311° |
| 2026-04-25 04:05 | 40.12266 | -78.53348 | 31905 ft | 314 kts | 310° |
| 2026-04-25 04:06 | 40.15100 | -78.57719 | 31904 ft | 316 kts | 311° |
| 2026-04-25 04:06 | 40.17947 | -78.62121 | 31901 ft | 318 kts | 311° |
| 2026-04-25 04:07 | 40.20807 | -78.66542 | 31894 ft | 318 kts | 311° |
| 2026-04-25 04:07 | 40.23671 | -78.70973 | 31871 ft | 319 kts | 310° |
| 2026-04-25 04:08 | 40.26536 | -78.75432 | 31891 ft | 320 kts | 310° |
| 2026-04-25 04:08 | 40.29396 | -78.79870 | 31890 ft | 321 kts | 310° |
| 2026-04-25 04:09 | 40.32391 | -78.84221 | 31888 ft | 322 kts | 319° |
| 2026-04-25 04:09 | 40.36114 | -78.87533 | 31887 ft | 324 kts | 325° |
| 2026-04-25 04:10 | 40.39767 | -78.90986 | 31904 ft | 324 kts | 322° |
| 2026-04-25 04:10 | 40.43438 | -78.94411 | 31896 ft | 324 kts | 323° |
| 2026-04-25 04:11 | 40.48932 | -78.99573 | 31865 ft | 324 kts | 323° |
| 2026-04-25 04:12 | 40.52602 | -79.03013 | 31869 ft | 324 kts | 323° |
| 2026-04-25 04:12 | 40.56268 | -79.06469 | 31853 ft | 324 kts | 322° |
| 2026-04-25 04:13 | 40.59972 | -79.09874 | 31855 ft | 325 kts | 323° |
| 2026-04-25 04:13 | 40.63730 | -79.13121 | 31865 ft | 325 kts | 325° |
| 2026-04-25 04:14 | 40.67581 | -79.16255 | 31866 ft | 326 kts | 326° |
| 2026-04-25 04:14 | 40.71356 | -79.19536 | 31862 ft | 324 kts | 316° |
| 2026-04-25 04:15 | 40.74556 | -79.23710 | 31858 ft | 324 kts | 316° |
| 2026-04-25 04:15 | 40.78205 | -79.27233 | 31841 ft | 327 kts | 324° |
| 2026-04-25 04:16 | 40.81903 | -79.30697 | 31835 ft | 325 kts | 321° |
| 2026-04-25 04:16 | 40.85566 | -79.34210 | 31852 ft | 326 kts | 322° |
| 2026-04-25 04:17 | 40.89246 | -79.37700 | 31842 ft | 326 kts | 321° |
| 2026-04-25 04:17 | 40.92920 | -79.41213 | 31841 ft | 326 kts | 322° |
| 2026-04-25 04:18 | 40.96589 | -79.44728 | 31821 ft | 326 kts | 321° |
| 2026-04-25 04:18 | 41.00282 | -79.48240 | 31821 ft | 327 kts | 321° |
| 2026-04-25 04:19 | 41.03972 | -79.51785 | 31821 ft | 328 kts | 321° |
| 2026-04-25 04:19 | 41.07668 | -79.55327 | 31819 ft | 328 kts | 321° |
| 2026-04-25 04:20 | 41.11366 | -79.58881 | 31831 ft | 328 kts | 321° |
| 2026-04-25 04:20 | 41.15060 | -79.62435 | 31828 ft | 328 kts | 321° |
| 2026-04-25 04:21 | 41.18753 | -79.65992 | 31826 ft | 328 kts | 321° |
| 2026-04-25 04:21 | 41.22447 | -79.69555 | 31826 ft | 328 kts | 321° |
| 2026-04-25 04:22 | 41.26112 | -79.73103 | 31822 ft | 328 kts | 321° |
| 2026-04-25 04:22 | 41.29799 | -79.76666 | 31821 ft | 328 kts | 321° |
| 2026-04-25 04:23 | 41.33472 | -79.80271 | 31811 ft | 328 kts | 320° |
| 2026-04-25 04:23 | 41.37131 | -79.83916 | 31810 ft | 329 kts | 320° |
| 2026-04-25 04:24 | 41.40769 | -79.87601 | 31813 ft | 329 kts | 319° |
| 2026-04-25 04:24 | 41.44393 | -79.91334 | 31813 ft | 329 kts | 319° |
| 2026-04-25 04:25 | 41.47986 | -79.95097 | 31813 ft | 329 kts | 318° |
| 2026-04-25 04:25 | 41.51573 | -79.98909 | 31849 ft | 329 kts | 318° |
| 2026-04-25 04:26 | 41.55136 | -80.02760 | 31859 ft | 329 kts | 317° |
| 2026-04-25 04:26 | 41.58675 | -80.06649 | 31878 ft | 330 kts | 317° |
| 2026-04-25 04:27 | 41.62195 | -80.10574 | 31885 ft | 330 kts | 316° |
| 2026-04-25 04:27 | 41.65695 | -80.14541 | 31886 ft | 330 kts | 316° |
| 2026-04-25 04:28 | 41.69179 | -80.18562 | 31692 ft | 336 kts | 315° |
| 2026-04-25 04:28 | 41.70937 | -80.20624 | 31268 ft | 334 kts | 315° |
| 2026-04-25 04:28 | 41.72671 | -80.22670 | 30830 ft | 330 kts | 315° |
| 2026-04-25 04:28 | 41.74380 | -80.24699 | 30395 ft | 327 kts | 315° |
| 2026-04-25 04:29 | 41.76073 | -80.26734 | 29601 ft | 332 kts | 314° |
| 2026-04-25 04:29 | 41.77939 | -80.28648 | 28566 ft | 344 kts | 323° |
| 2026-04-25 04:29 | 41.79953 | -80.30404 | 27775 ft | 343 kts | 322° |
| 2026-04-25 04:29 | 41.81883 | -80.32171 | 27392 ft | 330 kts | 322° |
| 2026-04-25 04:30 | 41.83133 | -80.33307 | 27035 ft | 326 kts | 322° |
| 2026-04-25 04:30 | 41.85007 | -80.34967 | 26525 ft | 320 kts | 323° |
| 2026-04-25 04:30 | 41.86853 | -80.36601 | 26042 ft | 315 kts | 323° |
| 2026-04-25 04:30 | 41.89240 | -80.38746 | 25413 ft | 309 kts | 323° |
| 2026-04-25 04:31 | 41.91014 | -80.40335 | 24944 ft | 305 kts | 323° |
| 2026-04-25 04:31 | 41.92203 | -80.41399 | 24638 ft | 302 kts | 323° |
| 2026-04-25 04:31 | 41.93935 | -80.42949 | 24331 ft | 295 kts | 323° |
| 2026-04-25 04:31 | 41.95616 | -80.44456 | 24079 ft | 287 kts | 323° |
| 2026-04-25 04:32 | 41.97299 | -80.45974 | 23838 ft | 296 kts | 323° |
| 2026-04-25 04:32 | 41.99035 | -80.47532 | 23609 ft | 302 kts | 323° |
| 2026-04-25 04:32 | 42.00795 | -80.49113 | 23376 ft | 307 kts | 323° |
| 2026-04-25 04:32 | 42.02578 | -80.50715 | 23129 ft | 310 kts | 323° |
| 2026-04-25 04:33 | 42.04381 | -80.52334 | 22873 ft | 313 kts | 323° |
| 2026-04-25 04:33 | 42.06203 | -80.53980 | 22429 ft | 319 kts | 322° |
| 2026-04-25 04:33 | 42.08057 | -80.55681 | 21944 ft | 326 kts | 323° |
| 2026-04-25 04:33 | 42.09966 | -80.57368 | 21477 ft | 331 kts | 323° |
| 2026-04-25 04:34 | 42.11895 | -80.59085 | 21019 ft | 333 kts | 323° |
| 2026-04-25 04:34 | 42.13813 | -80.60847 | 20573 ft | 335 kts | 322° |
| 2026-04-25 04:34 | 42.15716 | -80.62581 | 20142 ft | 333 kts | 323° |
| 2026-04-25 04:34 | 42.17631 | -80.64289 | 19714 ft | 329 kts | 323° |
| 2026-04-25 04:35 | 42.19522 | -80.65994 | 19290 ft | 325 kts | 323° |
| 2026-04-25 04:35 | 42.21381 | -80.67699 | 18881 ft | 322 kts | 323° |
| 2026-04-25 04:35 | 42.23232 | -80.69376 | 18470 ft | 319 kts | 323° |
| 2026-04-25 04:35 | 42.25076 | -80.71032 | 18073 ft | 317 kts | 323° |
| 2026-04-25 04:36 | 42.26890 | -80.72684 | 17621 ft | 314 kts | 323° |
| 2026-04-25 04:36 | 42.28696 | -80.74336 | 17170 ft | 312 kts | 323° |
| 2026-04-25 04:36 | 42.30447 | -80.76041 | 16728 ft | 310 kts | 320° |
| 2026-04-25 04:36 | 42.32192 | -80.77731 | 16298 ft | 308 kts | 322° |
| 2026-04-25 04:37 | 42.33960 | -80.79379 | 15869 ft | 307 kts | 322° |
| 2026-04-25 04:37 | 42.35698 | -80.81047 | 15453 ft | 306 kts | 321° |
| 2026-04-25 04:37 | 42.37414 | -80.82745 | 15046 ft | 305 kts | 321° |
| 2026-04-25 04:37 | 42.39142 | -80.84417 | 14648 ft | 305 kts | 321° |
| 2026-04-25 04:38 | 42.40878 | -80.86066 | 14256 ft | 304 kts | 321° |
| 2026-04-25 04:38 | 42.42593 | -80.87733 | 13876 ft | 303 kts | 321° |
| 2026-04-25 04:38 | 42.44298 | -80.89408 | 13489 ft | 303 kts | 321° |
| 2026-04-25 04:38 | 42.46012 | -80.91058 | 13086 ft | 302 kts | 321° |
| 2026-04-25 04:39 | 42.47730 | -80.92705 | 12676 ft | 302 kts | 320° |
| 2026-04-25 04:39 | 42.49425 | -80.94370 | 12279 ft | 301 kts | 320° |
| 2026-04-25 04:39 | 42.51121 | -80.96029 | 11882 ft | 300 kts | 320° |
| 2026-04-25 04:39 | 42.52816 | -80.97660 | 11487 ft | 299 kts | 320° |
| 2026-04-25 04:40 | 42.54507 | -80.99303 | 11106 ft | 298 kts | 320° |
| 2026-04-25 04:40 | 42.56187 | -81.00952 | 10728 ft | 298 kts | 320° |
| 2026-04-25 04:40 | 42.57865 | -81.02583 | 10358 ft | 297 kts | 320° |
| 2026-04-25 04:40 | 42.59543 | -81.04208 | 9995 ft | 296 kts | 320° |
| 2026-04-25 04:41 | 42.61202 | -81.05836 | 9626 ft | 294 kts | 319° |
| 2026-04-25 04:41 | 42.62854 | -81.07457 | 9234 ft | 292 kts | 320° |
| 2026-04-25 04:41 | 42.64495 | -81.09049 | 8851 ft | 286 kts | 320° |
| 2026-04-25 04:41 | 42.66093 | -81.10609 | 8481 ft | 279 kts | 319° |
| 2026-04-25 04:42 | 42.67648 | -81.12140 | 8123 ft | 273 kts | 320° |
| 2026-04-25 04:42 | 42.69175 | -81.13631 | 7781 ft | 269 kts | 320° |
| 2026-04-25 04:42 | 42.70667 | -81.15084 | 7427 ft | 258 kts | 320° |
| 2026-04-25 04:42 | 42.72097 | -81.16486 | 7080 ft | 249 kts | 320° |
| 2026-04-25 04:43 | 42.73480 | -81.17851 | 6739 ft | 242 kts | 320° |
| 2026-04-25 04:43 | 42.74815 | -81.19157 | 6402 ft | 238 kts | 320° |
| 2026-04-25 04:43 | 42.76163 | -81.20481 | 6040 ft | 234 kts | 320° |
| 2026-04-25 04:43 | 42.77455 | -81.21755 | 5684 ft | 231 kts | 320° |
| 2026-04-25 04:44 | 42.78758 | -81.23032 | 5337 ft | 229 kts | 321° |
| 2026-04-25 04:44 | 42.80041 | -81.24293 | 4998 ft | 227 kts | 321° |
| 2026-04-25 04:44 | 42.81313 | -81.25547 | 4640 ft | 225 kts | 321° |
| 2026-04-25 04:44 | 42.82566 | -81.26775 | 4492 ft | 215 kts | 321° |
| 2026-04-25 04:45 | 42.83738 | -81.27927 | 4490 ft | 202 kts | 321° |
| 2026-04-25 04:45 | 42.84848 | -81.29024 | 4488 ft | 193 kts | 321° |
| 2026-04-25 04:45 | 42.85918 | -81.30081 | 4487 ft | 186 kts | 321° |
| 2026-04-25 04:45 | 42.86950 | -81.31100 | 4487 ft | 181 kts | 321° |
| 2026-04-25 04:46 | 42.87969 | -81.32089 | 4486 ft | 178 kts | 321° |
| 2026-04-25 04:46 | 42.88957 | -81.33075 | 4487 ft | 175 kts | 320° |
| 2026-04-25 04:46 | 42.89935 | -81.34049 | 4498 ft | 177 kts | 321° |
| 2026-04-25 04:46 | 42.90992 | -81.35097 | 4507 ft | 195 kts | 321° |
| 2026-04-25 04:47 | 42.92112 | -81.36191 | 4516 ft | 201 kts | 323° |
| 2026-04-25 04:47 | 42.93455 | -81.36809 | 4518 ft | 210 kts | 348° |
| 2026-04-25 04:47 | 42.94908 | -81.37133 | 4518 ft | 213 kts | 345° |
| 2026-04-25 04:47 | 42.96336 | -81.37545 | 4516 ft | 209 kts | 344° |
| 2026-04-25 04:48 | 42.97764 | -81.37937 | 4517 ft | 208 kts | 345° |
| 2026-04-25 04:48 | 42.99198 | -81.38056 | 4507 ft | 211 kts | 9° |
| 2026-04-25 04:48 | 43.00468 | -81.37023 | 4491 ft | 217 kts | 44° |
| 2026-04-25 04:48 | 43.01145 | -81.35168 | 4294 ft | 225 kts | 77° |
| 2026-04-25 04:49 | 43.01441 | -81.33015 | 3578 ft | 237 kts | 79° |
| 2026-04-25 04:49 | 43.01737 | -81.30814 | 3181 ft | 229 kts | 80° |
| 2026-04-25 04:49 | 43.02034 | -81.28758 | 2893 ft | 213 kts | 79° |
| 2026-04-25 04:49 | 43.02314 | -81.26840 | 2603 ft | 199 kts | 81° |
| 2026-04-25 04:50 | 43.02566 | -81.25071 | 2331 ft | 173 kts | 84° |
| 2026-04-25 04:50 | 43.02775 | -81.23610 | 2107 ft | 145 kts | 83° |
| 2026-04-25 04:50 | 43.02949 | -81.22375 | 1904 ft | 122 kts | 83° |
| 2026-04-25 04:50 | 43.03096 | -81.21304 | 1714 ft | 113 kts | 81° |
| 2026-04-25 04:51 | 43.03269 | -81.20279 | 1533 ft | 109 kts | 80° |
| 2026-04-25 04:51 | 43.03384 | -81.19248 | 1372 ft | 111 kts | 82° |
| 2026-04-25 04:51 | 43.03542 | -81.18211 | 1214 ft | 112 kts | 77° |
| 2026-04-25 04:51 | 43.03721 | -81.17171 | 1061 ft | 112 kts | 73° |
| 2026-04-25 04:52 | 43.03845 | -81.16178 | 952 ft | 100 kts | 85° |
| 2026-04-25 04:52 | 43.03958 | -81.15267 | 904 ft | 88 kts | 80° |
| 2026-04-25 04:52 | 43.04037 | -81.14727 | 898 ft | 28 kts | 79° |
| 2026-04-25 04:52 | 43.04056 | -81.14520 | 899 ft | 17 kts | 124° |
| 2026-04-25 04:53 | 43.03956 | -81.14451 | 898 ft | 15 kts | 161° |
| 2026-04-25 04:53 | 43.03873 | -81.14422 | 899 ft | 9 kts | 207° |
| 2026-04-25 04:53 | 43.03848 | -81.14444 | 900 ft | 0 kts | 214° |